Time;durP1;ratioP1;P1;durP2;ratioP2;P2;SDS_P1;SDS_P2;PMS_P1;PMS_P2;Temp;Humidity;BMP_temperature;BMP_pressure;BME280_temperature;BME280_humidity;BME280_pressure;Samples;Min_cycle;Max_cycle;Signal;HPM_P1;HPM_P2
2022/10/29 00:01:31;;;;;;;24.80;12.57;;;;;;;;;;6245186;23;20343;-79
2022/10/29 00:03:56;;;;;;;25.73;12.45;;;;;;;;;;6246273;23;20071;-80
2022/10/29 00:06:21;;;;;;;28.48;14.10;;;;;;;;;;6193194;23;20004;-79
2022/10/29 00:08:53;;;;;;;25.90;13.95;;;;;;;;;;6217593;23;20076;-79
2022/10/29 00:11:25;;;;;;;27.13;13.95;;;;;;;;;;6245365;23;20000;-79
2022/10/29 00:13:56;;;;;;;30.25;13.98;;;;;;;;;;6219626;23;20416;-80
2022/10/29 00:16:23;;;;;;;29.55;14.23;;;;;;;;;;6244547;23;20000;-80
2022/10/29 00:18:48;;;;;;;25.52;14.25;;;;;;;;;;6219136;23;20419;-79
2022/10/29 00:21:18;;;;;;;22.08;13.30;;;;;;;;;;6218499;23;20028;-81
2022/10/29 00:23:44;;;;;;;32.08;14.43;;;;;;;;;;6244095;23;20000;-79
2022/10/29 00:26:09;;;;;;;23.55;13.75;;;;;;;;;;6216993;23;20079;-79
2022/10/29 00:28:35;;;;;;;27.55;13.02;;;;;;;;;;6217795;23;20003;-79
2022/10/29 00:31:02;;;;;;;28.30;13.80;;;;;;;;;;6243993;23;20079;-78
2022/10/29 00:33:28;;;;;;;29.15;13.48;;;;;;;;;;6217570;23;20436;-80
2022/10/29 00:35:55;;;;;;;28.30;13.40;;;;;;;;;;6244450;23;20126;-80
2022/10/29 00:38:21;;;;;;;22.13;11.75;;;;;;;;;;6246551;23;20010;-78
2022/10/29 00:40:46;;;;;;;23.98;11.57;;;;;;;;;;6217848;23;20000;-79
2022/10/29 00:43:16;;;;;;;23.38;10.93;;;;;;;;;;6218297;23;20009;-79
2022/10/29 00:45:45;;;;;;;17.05;10.23;;;;;;;;;;6244310;23;20079;-80
2022/10/29 00:48:11;;;;;;;25.80;10.20;;;;;;;;;;6244493;23;20000;-78
2022/10/29 00:50:36;;;;;;;25.33;10.55;;;;;;;;;;6217620;23;20004;-79
2022/10/29 00:53:02;;;;;;;20.00;10.82;;;;;;;;;;6234652;23;20003;-79
2022/10/29 00:55:27;;;;;;;21.80;10.73;;;;;;;;;;6222972;23;20000;-80
2022/10/29 00:57:56;;;;;;;16.50;9.35;;;;;;;;;;6245097;23;20349;-80
2022/10/29 01:00:21;;;;;;;24.52;10.00;;;;;;;;;;6192823;23;20035;-79
2022/10/29 01:02:50;;;;;;;20.25;10.63;;;;;;;;;;6217983;23;20408;-80
2022/10/29 01:05:18;;;;;;;18.40;10.13;;;;;;;;;;6218645;23;20004;-80
2022/10/29 01:07:44;;;;;;;20.75;10.20;;;;;;;;;;6192618;23;20047;-80
2022/10/29 01:10:09;;;;;;;19.02;10.88;;;;;;;;;;6217565;23;20000;-80
2022/10/29 01:12:53;;;;;;;16.98;9.80;;;;;;;;;;6217613;23;20008;-79
2022/10/29 01:15:32;;;;;;;23.48;10.75;;;;;;;;;;6244241;23;20004;-80
2022/10/29 01:18:13;;;;;;;27.23;11.18;;;;;;;;;;6217800;23;20005;-80
2022/10/29 01:20:57;;;;;;;;;;;;;;;;;;6245490;23;20019;-80
2022/10/29 01:23:36;;;;;;;25.50;11.35;;;;;;;;;;6216963;23;19914;-81
2022/10/29 01:26:35;;;;;;;23.63;11.48;;;;;;;;;;6216318;23;20004;-80
2022/10/29 01:29:36;;;;;;;31.92;11.55;;;;;;;;;;6217532;23;20011;-79
2022/10/29 01:32:12;;;;;;;18.20;10.60;;;;;;;;;;6152378;23;20011;-80
2022/10/29 01:34:58;;;;;;;20.75;10.52;;;;;;;;;;6218238;23;20000;-80
2022/10/29 01:37:40;;;;;;;21.17;10.43;;;;;;;;;;6243995;23;20000;-79
2022/10/29 01:40:26;;;;;;;20.58;10.23;;;;;;;;;;6198938;23;20003;-80
2022/10/29 01:42:56;;;;;;;18.65;10.57;;;;;;;;;;6219062;23;20007;-80
2022/10/29 01:45:28;;;;;;;22.50;10.55;;;;;;;;;;6217564;23;20424;-79
2022/10/29 01:47:59;;;;;;;29.08;11.55;;;;;;;;;;6217752;23;20000;-81
2022/10/29 01:50:27;;;;;;;21.15;12.00;;;;;;;;;;6216509;23;20008;-80
2022/10/29 01:52:52;;;;;;;25.20;11.57;;;;;;;;;;6191569;23;20008;-79
2022/10/29 01:55:19;;;;;;;22.83;10.55;;;;;;;;;;6216957;23;20075;-80
2022/10/29 01:57:44;;;;;;;20.75;10.65;;;;;;;;;;6243925;23;20089;-79
2022/10/29 02:00:17;;;;;;;17.67;10.48;;;;;;;;;;6244301;23;20029;-79
2022/10/29 02:03:00;;;;;;;22.40;11.38;;;;;;;;;;6217423;23;20453;-80
2022/10/29 02:05:28;;;;;;;19.05;10.80;;;;;;;;;;6243737;23;20004;-80
2022/10/29 02:08:14;;;;;;;16.75;10.40;;;;;;;;;;6217053;23;20022;-80
2022/10/29 02:10:55;;;;;;;19.00;10.88;;;;;;;;;;6243251;23;20412;-80
2022/10/29 02:13:23;;;;;;;16.40;10.07;;;;;;;;;;6220008;23;20427;-80
2022/10/29 02:15:50;;;;;;;17.45;10.32;;;;;;;;;;6191837;23;20031;-80
2022/10/29 02:18:15;;;;;;;24.92;11.15;;;;;;;;;;6191913;23;20004;-79
2022/10/29 02:20:42;;;;;;;19.65;11.32;;;;;;;;;;6247347;23;20026;-80
2022/10/29 02:23:07;;;;;;;19.85;11.18;;;;;;;;;;6217166;23;20011;-80
2022/10/29 02:25:33;;;;;;;22.42;11.00;;;;;;;;;;6217304;23;20089;-80
2022/10/29 02:27:58;;;;;;;23.25;13.20;;;;;;;;;;6243064;23;20066;-79
2022/10/29 02:30:24;;;;;;;31.58;15.02;;;;;;;;;;6243345;23;19996;-80
2022/10/29 02:32:49;;;;;;;37.53;17.63;;;;;;;;;;6243659;23;20000;-81
2022/10/29 02:35:15;;;;;;;35.90;17.70;;;;;;;;;;6216816;23;20008;-80
2022/10/29 02:37:40;;;;;;;27.20;14.38;;;;;;;;;;6217260;23;20000;-79
2022/10/29 02:40:06;;;;;;;30.70;15.75;;;;;;;;;;6220865;23;20069;-80
2022/10/29 02:42:32;;;;;;;38.35;16.58;;;;;;;;;;6243691;23;20503;-80
2022/10/29 02:44:57;;;;;;;37.25;17.25;;;;;;;;;;6243781;23;20016;-79
2022/10/29 02:47:23;;;;;;;30.48;17.02;;;;;;;;;;6243576;23;20024;-79
2022/10/29 02:49:48;;;;;;;33.67;17.85;;;;;;;;;;6216550;23;20011;-79
2022/10/29 02:52:14;;;;;;;36.08;16.55;;;;;;;;;;6216227;23;20008;-79
2022/10/29 02:54:39;;;;;;;33.70;16.95;;;;;;;;;;6243427;23;20382;-79
2022/10/29 02:57:10;;;;;;;32.35;16.95;;;;;;;;;;6242894;23;20083;-80
2022/10/29 02:59:36;;;;;;;36.85;17.38;;;;;;;;;;6247144;23;20355;-79
2022/10/29 03:02:01;;;;;;;33.83;18.08;;;;;;;;;;6218582;23;20000;-79
2022/10/29 03:04:27;;;;;;;34.30;16.50;;;;;;;;;;6243569;23;20071;-79
2022/10/29 03:06:52;;;;;;;42.70;20.02;;;;;;;;;;6217054;23;20008;-80
2022/10/29 03:09:18;;;;;;;34.78;20.23;;;;;;;;;;6218238;23;19992;-80
2022/10/29 03:11:43;;;;;;;39.88;19.73;;;;;;;;;;6245204;23;20018;-80
2022/10/29 03:14:09;;;;;;;37.15;19.40;;;;;;;;;;6193093;23;20000;-79
2022/10/29 03:16:34;;;;;;;35.05;19.52;;;;;;;;;;6244845;23;20004;-79
2022/10/29 03:19:00;;;;;;;37.08;20.70;;;;;;;;;;6245427;23;19996;-79
2022/10/29 03:21:25;;;;;;;43.40;21.83;;;;;;;;;;6196883;23;20051;-79
2022/10/29 03:23:51;;;;;;;41.75;21.42;;;;;;;;;;6218919;23;20003;-79
2022/10/29 03:26:16;;;;;;;46.65;22.50;;;;;;;;;;6225477;23;20009;-80
2022/10/29 03:28:42;;;;;;;43.63;22.52;;;;;;;;;;6213794;23;20071;-80
2022/10/29 03:31:07;;;;;;;45.70;24.65;;;;;;;;;;6187798;23;20019;-80
2022/10/29 03:33:33;;;;;;;37.78;23.30;;;;;;;;;;6187799;23;20001;-80
2022/10/29 03:36:00;;;;;;;41.00;24.27;;;;;;;;;;6187906;23;20087;-79
2022/10/29 03:38:26;;;;;;;40.65;24.77;;;;;;;;;;6188613;23;20023;-80
2022/10/29 03:40:51;;;;;;;45.35;25.40;;;;;;;;;;6189461;23;20005;-79
2022/10/29 03:43:17;;;;;;;42.33;25.38;;;;;;;;;;6188004;23;20011;-80
2022/10/29 03:45:42;;;;;;;45.33;26.33;;;;;;;;;;6188878;23;20016;-80
2022/10/29 03:48:08;;;;;;;48.10;28.20;;;;;;;;;;6214485;23;20416;-80
2022/10/29 03:50:33;;;;;;;46.50;28.50;;;;;;;;;;6214505;23;20032;-78
2022/10/29 03:52:59;;;;;;;50.00;28.58;;;;;;;;;;6214291;23;20000;-79
2022/10/29 03:55:24;;;;;;;50.75;28.15;;;;;;;;;;6214193;23;20028;-80
2022/10/29 03:57:50;;;;;;;47.40;27.02;;;;;;;;;;6214896;23;19997;-80
2022/10/29 04:00:15;;;;;;;40.53;24.45;;;;;;;;;;6215430;23;20377;-80
2022/10/29 04:02:41;;;;;;;48.45;27.63;;;;;;;;;;6214457;23;20015;-80
2022/10/29 04:05:07;;;;;;;45.28;25.83;;;;;;;;;;6200189;23;20031;-79
2022/10/29 04:07:32;;;;;;;45.20;25.60;;;;;;;;;;6188921;23;20061;-80
2022/10/29 04:09:57;;;;;;;46.45;25.85;;;;;;;;;;6188193;23;20005;-80
2022/10/29 04:12:23;;;;;;;49.92;26.67;;;;;;;;;;6214411;23;20044;-80
2022/10/29 04:14:48;;;;;;;46.97;26.15;;;;;;;;;;6214141;23;20001;-81
2022/10/29 04:17:14;;;;;;;50.83;26.33;;;;;;;;;;6213915;23;20450;-80
2022/10/29 04:19:39;;;;;;;42.88;25.98;;;;;;;;;;6189584;23;20332;-80
2022/10/29 04:22:05;;;;;;;48.53;27.05;;;;;;;;;;6163573;23;20004;-79
2022/10/29 04:24:31;;;;;;;50.97;27.15;;;;;;;;;;6215142;23;20054;-79
2022/10/29 04:26:56;;;;;;;49.65;26.88;;;;;;;;;;6188076;23;20051;-80
2022/10/29 04:29:21;;;;;;;46.80;26.80;;;;;;;;;;6214270;23;20001;-80
2022/10/29 04:31:47;;;;;;;47.95;26.23;;;;;;;;;;6213863;23;20083;-80
2022/10/29 04:34:12;;;;;;;44.97;27.23;;;;;;;;;;6213928;23;20005;-81
2022/10/29 04:36:38;;;;;;;51.08;27.83;;;;;;;;;;6213872;23;20004;-79
2022/10/29 04:39:03;;;;;;;48.50;28.30;;;;;;;;;;6189077;23;20005;-80
2022/10/29 04:41:29;;;;;;;48.92;27.52;;;;;;;;;;6187976;23;20024;-79
2022/10/29 04:43:54;;;;;;;54.38;29.02;;;;;;;;;;6188014;23;20005;-80
2022/10/29 04:46:20;;;;;;;54.50;27.27;;;;;;;;;;6213777;23;19997;-80
2022/10/29 04:48:45;;;;;;;54.42;29.55;;;;;;;;;;6213732;23;20443;-80
2022/10/29 04:51:21;;;;;;;50.38;27.70;;;;;;;;;;6213815;23;20008;-79
2022/10/29 04:53:47;;;;;;;49.00;27.40;;;;;;;;;;6214195;23;20004;-80
2022/10/29 04:56:12;;;;;;;48.80;26.30;;;;;;;;;;6213743;23;20496;-80
2022/10/29 04:58:38;;;;;;;46.78;26.88;;;;;;;;;;6213638;23;20000;-79
2022/10/29 05:01:03;;;;;;;50.17;27.60;;;;;;;;;;6187735;23;20062;-79
2022/10/29 05:03:32;;;;;;;54.95;27.80;;;;;;;;;;6188281;23;20336;-80
2022/10/29 05:05:57;;;;;;;48.85;27.25;;;;;;;;;;6213329;23;20391;-80
2022/10/29 05:08:23;;;;;;;55.67;27.58;;;;;;;;;;6213617;23;20005;-80
2022/10/29 05:10:48;;;;;;;53.13;28.85;;;;;;;;;;6187121;23;20427;-80
2022/10/29 05:13:14;;;;;;;53.75;27.75;;;;;;;;;;6213827;23;20015;-80
2022/10/29 05:15:39;;;;;;;51.08;28.50;;;;;;;;;;6161841;23;20058;-80
2022/10/29 05:18:05;;;;;;;52.38;28.45;;;;;;;;;;6213979;23;20009;-79
2022/10/29 05:20:30;;;;;;;51.83;28.52;;;;;;;;;;6189229;23;20055;-79
2022/10/29 05:23:05;;;;;;;50.92;29.85;;;;;;;;;;6187074;23;20092;-80
2022/10/29 05:25:32;;;;;;;58.53;30.05;;;;;;;;;;6162522;23;20015;-79
2022/10/29 05:28:19;;;;;;;47.78;27.63;;;;;;;;;;6162261;23;20004;-80
2022/10/29 05:30:46;;;;;;;51.75;27.60;;;;;;;;;;6186313;23;20576;-80
2022/10/29 05:33:16;;;;;;;53.53;28.77;;;;;;;;;;6187291;23;20020;-80
2022/10/29 05:35:41;;;;;;;59.30;29.80;;;;;;;;;;6162520;23;20008;-80
2022/10/29 05:38:09;;;;;;;52.85;27.83;;;;;;;;;;6187105;23;20000;-79
2022/10/29 05:40:36;;;;;;;52.50;26.25;;;;;;;;;;6187339;23;20001;-81
2022/10/29 05:43:01;;;;;;;48.00;26.40;;;;;;;;;;6164296;23;20011;-81
2022/10/29 05:45:26;;;;;;;50.35;26.05;;;;;;;;;;6161389;23;20032;-79
2022/10/29 05:47:57;;;;;;;53.30;27.17;;;;;;;;;;6187298;23;20000;-79
2022/10/29 05:50:23;;;;;;;61.00;26.90;;;;;;;;;;6162343;23;20075;-79
2022/10/29 05:53:12;;;;;;;51.85;26.65;;;;;;;;;;6213061;23;20084;-79
2022/10/29 05:55:38;;;;;;;57.53;27.77;;;;;;;;;;6186337;23;20000;-79
2022/10/29 05:58:05;;;;;;;55.47;26.23;;;;;;;;;;6211343;23;20008;-79
2022/10/29 06:00:32;;;;;;;56.35;26.20;;;;;;;;;;6184977;23;20000;-80
2022/10/29 06:02:58;;;;;;;56.78;26.98;;;;;;;;;;6215165;23;20012;-77
2022/10/29 06:05:23;;;;;;;50.95;26.02;;;;;;;;;;6212352;23;20001;-77
2022/10/29 06:07:59;;;;;;;52.10;26.33;;;;;;;;;;6186678;23;20060;-79
2022/10/29 06:10:25;;;;;;;56.40;25.30;;;;;;;;;;6212984;23;20063;-79
2022/10/29 06:12:50;;;;;;;48.60;27.38;;;;;;;;;;6186996;23;20091;-80
2022/10/29 06:15:16;;;;;;;82.82;45.63;;;;;;;;;;6212845;23;20012;-80
2022/10/29 06:17:42;;;;;;;48.85;29.08;;;;;;;;;;6212134;23;20001;-79
2022/10/29 06:20:08;;;;;;;46.83;25.05;;;;;;;;;;6210502;23;20005;-79
2022/10/29 06:22:34;;;;;;;46.53;24.95;;;;;;;;;;6214054;23;20008;-80
2022/10/29 06:24:59;;;;;;;41.33;22.83;;;;;;;;;;6183911;23;20009;-79
2022/10/29 06:27:25;;;;;;;40.85;22.90;;;;;;;;;;6209059;23;20030;-80
2022/10/29 06:29:50;;;;;;;37.60;23.25;;;;;;;;;;6184667;23;20008;-79
2022/10/29 06:32:16;;;;;;;42.15;21.83;;;;;;;;;;6185055;23;20475;-80
2022/10/29 06:34:41;;;;;;;35.80;21.65;;;;;;;;;;6186150;23;20412;-77
2022/10/29 06:37:07;;;;;;;33.85;20.85;;;;;;;;;;6212746;23;20401;-78
2022/10/29 06:39:32;;;;;;;41.83;23.08;;;;;;;;;;6213058;23;19996;-78
2022/10/29 06:44:42;;;;;;;44.70;22.55;;;;;;;;;;6215876;23;20410;-78
2022/10/29 06:47:07;;;;;;;40.60;22.75;;;;;;;;;;6214422;23;20032;-79
2022/10/29 06:49:33;;;;;;;39.25;22.45;;;;;;;;;;6214829;23;20001;-78
2022/10/29 06:51:58;;;;;;;33.78;21.33;;;;;;;;;;6214825;23;20043;-79
2022/10/29 06:54:23;;;;;;;47.80;21.25;;;;;;;;;;6188538;23;20000;-78
2022/10/29 06:56:49;;;;;;;44.92;20.98;;;;;;;;;;6214158;23;19996;-80
2022/10/29 06:59:14;;;;;;;37.50;21.92;;;;;;;;;;6163444;23;20054;-79
2022/10/29 07:01:40;;;;;;;36.92;20.95;;;;;;;;;;6188586;23;20153;-79
2022/10/29 07:04:05;;;;;;;42.97;20.38;;;;;;;;;;6188623;23;20104;-79
2022/10/29 07:06:31;;;;;;;35.50;19.63;;;;;;;;;;6214194;23;20008;-79
2022/10/29 07:08:57;;;;;;;35.83;18.90;;;;;;;;;;6188403;23;20004;-79
2022/10/29 07:11:22;;;;;;;41.53;22.92;;;;;;;;;;6187969;23;20008;-79
2022/10/29 07:13:48;;;;;;;28.35;17.63;;;;;;;;;;6188647;23;20070;-78
2022/10/29 07:16:13;;;;;;;32.35;17.45;;;;;;;;;;6188766;23;19997;-78
2022/10/29 07:18:39;;;;;;;27.40;16.75;;;;;;;;;;6237104;23;20071;-79
2022/10/29 07:21:04;;;;;;;25.55;15.85;;;;;;;;;;6195522;23;20001;-80
2022/10/29 07:23:30;;;;;;;26.05;16.27;;;;;;;;;;6219404;23;20083;-80
2022/10/29 07:25:55;;;;;;;27.27;16.27;;;;;;;;;;6212979;23;20012;-80
2022/10/29 07:28:22;;;;;;;37.80;16.45;;;;;;;;;;6213338;23;20323;-79
2022/10/29 07:30:48;;;;;;;36.42;17.75;;;;;;;;;;6186905;23;20000;-79
2022/10/29 07:33:14;;;;;;;29.73;15.70;;;;;;;;;;6187902;23;20062;-79
2022/10/29 07:35:40;;;;;;;27.75;14.73;;;;;;;;;;6138805;23;20363;-80
2022/10/29 07:38:06;;;;;;;24.25;14.60;;;;;;;;;;6213159;23;20083;-80
2022/10/29 07:40:31;;;;;;;24.55;14.05;;;;;;;;;;6138398;23;20009;-80
2022/10/29 07:42:59;;;;;;;27.08;14.25;;;;;;;;;;6192346;23;20035;-78
2022/10/29 07:45:25;;;;;;;28.20;15.32;;;;;;;;;;6214951;23;20001;-81
2022/10/29 07:48:01;;;;;;;25.35;13.95;;;;;;;;;;6138285;23;20001;-79
2022/10/29 07:50:27;;;;;;;18.63;12.20;;;;;;;;;;6188725;23;20008;-79
2022/10/29 07:52:52;;;;;;;22.35;12.90;;;;;;;;;;6187845;23;20012;-79
2022/10/29 07:55:18;;;;;;;26.27;13.07;;;;;;;;;;6162516;23;20324;-78
2022/10/29 07:57:43;;;;;;;22.48;12.05;;;;;;;;;;6187633;23;20008;-78
2022/10/29 08:00:11;;;;;;;22.05;12.82;;;;;;;;;;6214204;23;20329;-78
2022/10/29 08:02:38;;;;;;;21.98;12.50;;;;;;;;;;6189649;23;20011;-79
2022/10/29 08:05:05;;;;;;;19.80;12.98;;;;;;;;;;6163982;23;20008;-80
2022/10/29 08:07:31;;;;;;;21.70;13.10;;;;;;;;;;6213731;23;20027;-79
2022/10/29 08:09:56;;;;;;;22.02;13.50;;;;;;;;;;6187325;23;20001;-79
2022/10/29 08:12:21;;;;;;;23.33;13.70;;;;;;;;;;6212634;23;20077;-76
2022/10/29 08:14:47;;;;;;;24.92;13.48;;;;;;;;;;6163037;23;20004;-80
2022/10/29 08:17:13;;;;;;;23.33;14.57;;;;;;;;;;6213745;23;20000;-80
2022/10/29 08:19:38;;;;;;;26.98;16.38;;;;;;;;;;6214028;23;20447;-79
2022/10/29 08:22:04;;;;;;;25.15;14.23;;;;;;;;;;6214134;23;20012;-79
2022/10/29 08:24:29;;;;;;;28.00;14.90;;;;;;;;;;6188563;23;19997;-80
2022/10/29 08:26:55;;;;;;;26.52;15.05;;;;;;;;;;6162161;23;20438;-80
2022/10/29 08:29:20;;;;;;;26.75;14.82;;;;;;;;;;6214332;23;20079;-79
2022/10/29 08:31:46;;;;;;;27.83;15.18;;;;;;;;;;6161643;23;20067;-79
2022/10/29 08:34:11;;;;;;;28.58;15.93;;;;;;;;;;6188448;23;20005;-80
2022/10/29 08:36:36;;;;;;;32.60;15.07;;;;;;;;;;6162402;23;20000;-81
2022/10/29 08:39:02;;;;;;;25.75;15.15;;;;;;;;;;6186745;23;20008;-79
2022/10/29 08:41:30;;;;;;;27.80;15.23;;;;;;;;;;6213662;23;20000;-80
2022/10/29 08:44:20;;;;;;;33.72;15.90;;;;;;;;;;6219103;23;20076;-80
2022/10/29 08:46:53;;;;;;;26.02;15.07;;;;;;;;;;6165173;23;20031;-80
2022/10/29 08:49:32;;;;;;;27.70;14.80;;;;;;;;;;6138333;23;20422;-80
2022/10/29 08:52:04;;;;;;;30.75;14.68;;;;;;;;;;6191979;23;20004;-79
2022/10/29 08:54:30;;;;;;;29.55;15.02;;;;;;;;;;6188918;23;20000;-80
2022/10/29 08:56:56;;;;;;;29.80;14.48;;;;;;;;;;6164602;23;20005;-80
2022/10/29 08:59:23;;;;;;;32.70;15.00;;;;;;;;;;6162929;23;20067;-80
2022/10/29 09:01:49;;;;;;;45.42;14.80;;;;;;;;;;6186252;23;20035;-79
2022/10/29 09:04:22;;;;;;;25.15;13.80;;;;;;;;;;6171878;23;20069;-79
2022/10/29 09:07:10;;;;;;;28.25;14.40;;;;;;;;;;6193772;23;20009;-80
2022/10/29 09:09:45;;;;;;;30.15;13.82;;;;;;;;;;6211524;23;19996;-78
2022/10/29 09:12:40;;;;;;;26.83;12.80;;;;;;;;;;6159264;23;20024;-77
2022/10/29 09:15:11;;;;;;;23.20;13.43;;;;;;;;;;6189217;23;20111;-79
2022/10/29 09:18:04;;;;;;;24.92;13.90;;;;;;;;;;6211009;23;20494;-79
2022/10/29 09:20:56;;;;;;;26.25;14.00;;;;;;;;;;6212308;23;20107;-79
2022/10/29 09:23:43;;;;;;;27.38;14.45;;;;;;;;;;6188836;23;20005;-78
2022/10/29 09:26:44;;;;;;;24.27;13.57;;;;;;;;;;6199004;23;20008;-80
2022/10/29 09:29:24;;;;;;;30.90;13.02;;;;;;;;;;6199057;23;20008;-78
2022/10/29 09:31:52;;;;;;;23.25;12.82;;;;;;;;;;6210611;23;20008;-79
2022/10/29 09:34:33;;;;;;;20.48;12.63;;;;;;;;;;6181646;23;20005;-79
2022/10/29 09:36:58;;;;;;;29.45;12.57;;;;;;;;;;6183811;23;20454;-79
2022/10/29 09:39:36;;;;;;;24.42;11.55;;;;;;;;;;6206992;23;20079;-80
2022/10/29 09:42:01;;;;;;;22.80;11.23;;;;;;;;;;6183904;23;20000;-80
2022/10/29 09:44:30;;;;;;;18.95;11.85;;;;;;;;;;6183061;23;20008;-79
2022/10/29 09:46:58;;;;;;;19.05;10.98;;;;;;;;;;6215554;23;20424;-80
2022/10/29 09:49:34;;;;;;;28.05;10.70;;;;;;;;;;6209615;23;20000;-78
2022/10/29 09:52:09;;;;;;;26.42;11.02;;;;;;;;;;6207537;23;20079;-79
2022/10/29 09:54:34;;;;;;;22.08;10.38;;;;;;;;;;6184249;23;20004;-78
2022/10/29 09:57:00;;;;;;;17.90;10.57;;;;;;;;;;6183422;23;20027;-79
2022/10/29 09:59:43;;;;;;;20.80;10.45;;;;;;;;;;6184001;23;20072;-79
2022/10/29 10:02:27;;;;;;;17.45;10.63;;;;;;;;;;6160146;23;20004;-80
2022/10/29 10:04:57;;;;;;;16.13;10.35;;;;;;;;;;6220911;23;20031;-80
2022/10/29 10:07:23;;;;;;;;;;;;;;;;;;6212203;23;20032;-79
2022/10/29 10:09:52;;;;;;;21.60;11.45;;;;;;;;;;6213020;23;19908;-79
2022/10/29 10:12:18;;;;;;;18.35;11.38;;;;;;;;;;6211535;23;20008;-79
2022/10/29 10:14:45;;;;;;;24.65;11.60;;;;;;;;;;6161715;23;20005;-80
2022/10/29 10:17:10;;;;;;;22.38;12.07;;;;;;;;;;6162499;23;20166;-79
2022/10/29 10:19:38;;;;;;;22.67;11.65;;;;;;;;;;6213036;23;20375;-79
2022/10/29 10:22:04;;;;;;;24.73;11.95;;;;;;;;;;6163108;23;20459;-77
2022/10/29 10:24:30;;;;;;;19.48;11.88;;;;;;;;;;6215012;23;20036;-79
2022/10/29 10:26:56;;;;;;;20.70;11.25;;;;;;;;;;6214288;23;20466;-78
2022/10/29 10:29:22;;;;;;;22.67;10.70;;;;;;;;;;6164228;23;20036;-80
2022/10/29 10:31:56;;;;;;;18.80;10.13;;;;;;;;;;6210057;23;20011;-79
2022/10/29 10:34:34;;;;;;;15.57;9.32;;;;;;;;;;6214204;23;20008;-78
2022/10/29 10:37:08;;;;;;;16.33;9.82;;;;;;;;;;6187550;23;20019;-79
2022/10/29 10:39:37;;;;;;;18.42;9.30;;;;;;;;;;6187193;23;20004;-77
2022/10/29 10:42:33;;;;;;;19.10;9.17;;;;;;;;;;6161463;23;20008;-79
2022/10/29 10:45:11;;;;;;;16.77;9.13;;;;;;;;;;6192411;23;20224;-79
2022/10/29 10:47:37;;;;;;;24.73;9.18;;;;;;;;;;6185521;23;20000;-79
2022/10/29 10:50:18;;;;;;;19.13;9.48;;;;;;;;;;6136878;23;20104;-77
2022/10/29 10:52:43;;;;;;;13.65;8.85;;;;;;;;;;6163061;23;20024;-79
2022/10/29 10:55:28;;;;;;;14.45;8.98;;;;;;;;;;6186654;23;20297;-78
2022/10/29 10:58:23;;;;;;;15.98;8.27;;;;;;;;;;6163699;23;20009;-78
2022/10/29 11:00:53;;;;;;;18.33;8.85;;;;;;;;;;6156270;23;20249;-78
2022/10/29 11:03:20;;;;;;;15.32;8.43;;;;;;;;;;6161466;23;20001;-79
2022/10/29 11:06:02;;;;;;;18.63;8.30;;;;;;;;;;6142852;23;20048;-79
2022/10/29 11:08:27;;;;;;;14.85;8.65;;;;;;;;;;6164364;23;20320;-80
2022/10/29 11:10:58;;;;;;;15.05;7.95;;;;;;;;;;6212508;23;20001;-78
2022/10/29 11:13:30;;;;;;;21.38;8.70;;;;;;;;;;6188423;23;20035;-80
2022/10/29 11:15:57;;;;;;;11.00;7.90;;;;;;;;;;6188618;23;20408;-79
2022/10/29 11:18:38;;;;;;;12.32;7.57;;;;;;;;;;6163471;23;20009;-79
2022/10/29 11:21:15;;;;;;;14.30;8.27;;;;;;;;;;6163618;23;20008;-78
2022/10/29 11:23:45;;;;;;;17.98;8.20;;;;;;;;;;6188568;23;20313;-80
2022/10/29 11:26:15;;;;;;;16.98;8.32;;;;;;;;;;6176191;23;20029;-79
2022/10/29 11:29:14;;;;;;;12.50;7.43;;;;;;;;;;6162798;23;20005;-79
2022/10/29 11:31:41;;;;;;;17.58;8.02;;;;;;;;;;6157849;23;20107;-78
2022/10/29 11:34:17;;;;;;;13.07;7.72;;;;;;;;;;6188434;23;20087;-79
2022/10/29 11:37:01;;;;;;;18.50;7.28;;;;;;;;;;6187224;23;19997;-80
2022/10/29 11:39:32;;;;;;;14.95;6.90;;;;;;;;;;6142524;23;20039;-79
2022/10/29 11:41:58;;;;;;;12.95;7.10;;;;;;;;;;6163464;23;19997;-79
2022/10/29 11:44:24;;;;;;;15.15;7.20;;;;;;;;;;6165622;23;20091;-79
2022/10/29 11:47:18;;;;;;;13.63;7.35;;;;;;;;;;6174088;23;20007;-79
2022/10/29 11:50:06;;;;;;;11.70;7.45;;;;;;;;;;6192127;23;20000;-80
2022/10/29 11:52:31;;;;;;;9.02;6.50;;;;;;;;;;6214319;23;20442;-79
2022/10/29 11:55:15;;;;;;;14.65;6.35;;;;;;;;;;6214630;23;20075;-79
2022/10/29 11:57:59;;;;;;;10.63;6.20;;;;;;;;;;6214476;23;20032;-79
2022/10/29 12:00:24;;;;;;;8.45;5.65;;;;;;;;;;6213690;23;20005;-80
2022/10/29 12:03:19;;;;;;;15.32;6.20;;;;;;;;;;6187918;23;20306;-79
2022/10/29 12:06:09;;;;;;;11.13;6.05;;;;;;;;;;6198451;23;20027;-79
2022/10/29 12:08:40;;;;;;;14.18;6.15;;;;;;;;;;6189116;23;20079;-80
2022/10/29 12:11:40;;;;;;;13.98;7.55;;;;;;;;;;6187287;23;20424;-78
2022/10/29 12:14:18;;;;;;;9.98;6.20;;;;;;;;;;6141745;23;20009;-78
2022/10/29 12:16:56;;;;;;;11.18;6.15;;;;;;;;;;6187525;23;20015;-79
2022/10/29 12:19:36;;;;;;;9.90;6.03;;;;;;;;;;6187547;23;20000;-79
2022/10/29 12:22:20;;;;;;;9.98;6.00;;;;;;;;;;6162964;23;20087;-78
2022/10/29 12:25:23;;;;;;;13.77;6.20;;;;;;;;;;6168689;23;20463;-79
2022/10/29 12:27:57;;;;;;;11.70;6.65;;;;;;;;;;6202346;23;20004;-78
2022/10/29 12:30:23;;;;;;;11.20;7.38;;;;;;;;;;6244089;23;20004;-78
2022/10/29 12:33:10;;;;;;;11.65;6.82;;;;;;;;;;6192666;23;20313;-79
2022/10/29 12:35:36;;;;;;;10.35;5.95;;;;;;;;;;6244223;23;20012;-79
2022/10/29 12:38:39;;;;;;;13.40;6.30;;;;;;;;;;6244265;23;20007;-78
2022/10/29 12:41:12;;;;;;;8.68;5.68;;;;;;;;;;6192385;23;20036;-79
2022/10/29 12:43:38;;;;;;;10.70;5.93;;;;;;;;;;6193854;23;20008;-79
2022/10/29 12:46:15;;;;;;;12.75;5.43;;;;;;;;;;6225113;23;20363;-79
2022/10/29 12:48:46;;;;;;;13.48;5.57;;;;;;;;;;6217881;23;20008;-78
2022/10/29 12:51:33;;;;;;;11.15;5.18;;;;;;;;;;6216372;23;20015;-79
2022/10/29 12:54:02;;;;;;;9.95;5.25;;;;;;;;;;6217702;23;20012;-80
2022/10/29 12:56:28;;;;;;;11.82;5.68;;;;;;;;;;6244419;23;20095;-78
2022/10/29 12:58:58;;;;;;;11.13;5.78;;;;;;;;;;6191983;23;20000;-78
2022/10/29 13:01:29;;;;;;;14.43;5.55;;;;;;;;;;6192765;23;20351;-78
2022/10/29 13:03:55;;;;;;;12.80;5.50;;;;;;;;;;6217777;23;20135;-80
2022/10/29 13:06:42;;;;;;;10.55;5.80;;;;;;;;;;6249657;22;20424;-79
2022/10/29 13:09:21;;;;;;;18.38;5.47;;;;;;;;;;6243968;23;20000;-78
2022/10/29 13:11:58;;;;;;;14.02;5.30;;;;;;;;;;6217857;23;20004;-78
2022/10/29 13:14:55;;;;;;;14.85;5.90;;;;;;;;;;6193507;23;20324;-78
2022/10/29 13:17:38;;;;;;;10.40;5.78;;;;;;;;;;6205001;23;20091;-79
2022/10/29 13:20:06;;;;;;;11.60;5.53;;;;;;;;;;6192216;23;20006;-78
2022/10/29 13:22:54;;;;;;;10.48;5.63;;;;;;;;;;6192462;23;20008;-79
2022/10/29 13:25:41;;;;;;;12.95;5.45;;;;;;;;;;6191049;23;20012;-79
2022/10/29 13:28:07;;;;;;;10.35;5.80;;;;;;;;;;6218899;23;20001;-79
2022/10/29 13:30:36;;;;;;;14.55;5.80;;;;;;;;;;6214057;23;20015;-79
2022/10/29 13:33:27;;;;;;;8.80;6.33;;;;;;;;;;6187663;23;20004;-78
2022/10/29 13:36:36;;;;;;;13.95;5.55;;;;;;;;;;6213590;23;20282;-79
2022/10/29 13:39:04;;;;;;;16.48;6.15;;;;;;;;;;6214153;23;20005;-78
2022/10/29 13:41:41;;;;;;;13.00;6.13;;;;;;;;;;6214729;23;20062;-79
2022/10/29 13:44:06;;;;;;;13.63;6.32;;;;;;;;;;6190200;23;20066;-79
2022/10/29 13:47:26;;;;;;;14.38;6.32;;;;;;;;;;6223369;23;20000;-79
2022/10/29 13:49:51;;;;;;;11.82;6.57;;;;;;;;;;6121803;23;20017;-79
2022/10/29 13:52:17;;;;;;;12.75;6.00;;;;;;;;;;6167922;23;20005;-79
2022/10/29 13:54:48;;;;;;;15.20;5.80;;;;;;;;;;6160956;23;20005;-79
2022/10/29 13:57:31;;;;;;;15.10;5.70;;;;;;;;;;6161807;23;20020;-79
2022/10/29 14:00:07;;;;;;;17.20;7.95;;;;;;;;;;6213279;23;20011;-77
2022/10/29 14:02:38;;;;;;;11.90;6.32;;;;;;;;;;6187287;23;20060;-79
2022/10/29 14:05:25;;;;;;;12.10;6.75;;;;;;;;;;6213208;23;20395;-79
2022/10/29 14:08:00;;;;;;;14.52;6.70;;;;;;;;;;6219590;23;20000;-79
2022/10/29 14:10:31;;;;;;;17.08;7.18;;;;;;;;;;6213311;23;20015;-79
2022/10/29 14:12:59;;;;;;;14.35;6.15;;;;;;;;;;6162319;23;20348;-78
2022/10/29 14:15:25;;;;;;;17.33;6.30;;;;;;;;;;6162445;23;20000;-78
2022/10/29 14:17:50;;;;;;;13.32;5.72;;;;;;;;;;6213755;23;20001;-78
2022/10/29 14:20:24;;;;;;;15.10;5.88;;;;;;;;;;6187815;23;20008;-78
2022/10/29 14:22:49;;;;;;;10.82;5.88;;;;;;;;;;6137755;23;20008;-79
2022/10/29 14:25:32;;;;;;;14.43;6.00;;;;;;;;;;6137594;23;20009;-78
2022/10/29 14:28:09;;;;;;;14.80;6.28;;;;;;;;;;6138797;23;20462;-79
2022/10/29 14:30:34;;;;;;;13.73;5.90;;;;;;;;;;6187501;23;20012;-79
2022/10/29 14:32:59;;;;;;;14.75;6.78;;;;;;;;;;6186411;23;20004;-79
2022/10/29 14:35:25;;;;;;;11.82;6.38;;;;;;;;;;6213050;23;20004;-78
2022/10/29 14:37:52;;;;;;;15.38;6.40;;;;;;;;;;6186947;23;20001;-78
2022/10/29 14:40:21;;;;;;;13.60;6.60;;;;;;;;;;6187682;23;20008;-79
2022/10/29 14:42:54;;;;;;;16.67;6.68;;;;;;;;;;6162240;23;20011;-79
2022/10/29 14:45:19;;;;;;;13.43;6.70;;;;;;;;;;6162983;23;20008;-79